EmailTwitter


Observations de surface / Québec / LFRH

Régions: Québec | Canada | États-Unis | Europe | France | UK | Elsewhere
Station
Affichage
Infos & localisation pour LFRH | Aide pour décoder les METARs

Observations prises le 2017-02-24 à 10H00 UTC à LORIENT/LANN BIH, FR (LFRH)

Température: 9.0 Celsius

Point de rosée: 4.0 Celsius

Humidité relative: 71%

Vents: Nord-ouest à 9 km/h ou 5 noeuds.

Pression au niveau moyen de la mer: 102.20 kilopascals.

Observation METAR:

LFRH 241000Z AUTO 32005KT 260V030 CAVOK 09/04 Q1022 NOSIG=